createdAt,value
2023-02-14T00:02:26.115Z,8.87
2023-02-14T00:04:52.591Z,9.00
2023-02-14T00:07:19.342Z,9.23
2023-02-14T00:09:45.696Z,9.30
2023-02-14T00:12:12.216Z,9.00
2023-02-14T00:14:57.359Z,9.07
2023-02-14T00:17:23.718Z,8.70
2023-02-14T00:19:50.520Z,9.23
2023-02-14T00:22:17.023Z,8.90
2023-02-14T00:24:43.428Z,8.67
2023-02-14T00:27:09.952Z,9.63
2023-02-14T00:29:36.420Z,9.13
2023-02-14T00:32:03.760Z,8.97
2023-02-14T00:34:30.477Z,8.17
2023-02-14T00:36:56.889Z,10.10
2023-02-14T00:39:23.401Z,9.40
2023-02-14T00:41:49.877Z,9.63
2023-02-14T00:44:16.322Z,8.77
2023-02-14T00:46:42.804Z,8.80
2023-02-14T00:49:09.447Z,9.03
2023-02-14T00:51:35.907Z,8.90
2023-02-14T00:54:03.334Z,8.70
2023-02-14T00:56:29.819Z,8.70
2023-02-14T00:58:56.213Z,9.00
2023-02-14T01:01:22.684Z,9.73
2023-02-14T01:03:49.181Z,8.50
2023-02-14T01:06:15.973Z,9.03
2023-02-14T01:08:42.361Z,9.57
2023-02-14T01:11:11.618Z,9.10
2023-02-14T01:13:38.346Z,8.73
2023-02-14T01:16:08.568Z,9.57
2023-02-14T01:18:36.239Z,9.10
2023-02-14T01:21:25.732Z,9.27
2023-02-14T01:23:54.997Z,8.27
2023-02-14T01:26:22.447Z,9.60
2023-02-14T01:28:49.174Z,9.60
2023-02-14T01:31:21.842Z,9.07
2023-02-14T01:33:50.111Z,9.43
2023-02-14T01:36:23.165Z,9.17
2023-02-14T01:39:12.282Z,8.83
2023-02-14T01:41:41.400Z,8.93
2023-02-14T01:44:36.644Z,9.10
2023-02-14T01:47:06.948Z,9.50
2023-02-14T01:49:41.591Z,9.43
2023-02-14T01:52:19.554Z,9.23
2023-02-14T01:54:54.316Z,9.67
2023-02-14T01:57:22.789Z,8.83
2023-02-14T01:59:53.857Z,9.23
2023-02-14T02:02:23.824Z,9.10
2023-02-14T02:04:55.944Z,8.90
2023-02-14T02:07:26.536Z,9.57
2023-02-14T02:10:00.508Z,9.33
2023-02-14T02:12:29.787Z,9.57
2023-02-14T02:14:59.698Z,9.03
2023-02-14T02:17:41.397Z,9.30
2023-02-14T02:20:52.351Z,9.63
2023-02-14T02:23:53.443Z,9.47
2023-02-14T02:26:56.934Z,10.50
2023-02-14T02:29:29.333Z,9.90
2023-02-14T02:32:11.089Z,10.50
2023-02-14T02:34:55.249Z,10.63
2023-02-14T02:37:41.170Z,10.43
2023-02-14T02:40:22.208Z,9.63
2023-02-14T02:43:00.529Z,10.27
2023-02-14T02:46:04.111Z,10.17
2023-02-14T02:48:43.668Z,9.23
2023-02-14T02:51:37.836Z,9.80
2023-02-14T02:54:13.180Z,10.10
2023-02-14T02:56:51.042Z,9.80
2023-02-14T02:59:30.915Z,8.67
2023-02-14T03:02:21.372Z,9.73
2023-02-14T03:04:55.298Z,10.73
2023-02-14T03:07:42.102Z,9.53
2023-02-14T03:10:13.135Z,9.07
2023-02-14T03:13:04.461Z,9.87
2023-02-14T03:15:52.548Z,10.20
2023-02-14T03:18:43.383Z,8.97
2023-02-14T03:21:25.979Z,9.43
2023-02-14T03:24:30.222Z,9.37
2023-02-14T03:27:21.708Z,9.90
2023-02-14T03:30:03.015Z,9.73
2023-02-14T03:32:57.008Z,9.70
2023-02-14T03:35:36.760Z,10.07
2023-02-14T03:38:13.910Z,10.07
2023-02-14T03:40:44.793Z,9.33
2023-02-14T03:43:20.917Z,10.17
2023-02-14T03:46:11.948Z,9.23
2023-02-14T03:48:41.833Z,10.50
2023-02-14T03:51:11.821Z,10.03
2023-02-14T03:53:43.405Z,8.93
2023-02-14T03:56:40.037Z,9.67
2023-02-14T03:59:13.526Z,9.27
2023-02-14T04:01:53.487Z,9.67
2023-02-14T04:04:23.481Z,9.57
2023-02-14T04:06:49.984Z,9.17
2023-02-14T04:09:16.541Z,9.03
2023-02-14T04:11:43.094Z,9.63
2023-02-14T04:14:09.499Z,9.37
2023-02-14T04:16:55.889Z,9.33
2023-02-14T04:19:25.191Z,8.00
2023-02-14T04:21:52.200Z,10.07
2023-02-14T04:24:19.358Z,9.23
2023-02-14T04:27:10.114Z,9.63
2023-02-14T04:29:43.194Z,9.80
2023-02-14T04:32:12.624Z,9.57
2023-02-14T04:34:39.567Z,9.47
2023-02-14T04:37:06.879Z,10.60
2023-02-14T04:39:33.890Z,10.17
2023-02-14T04:42:00.596Z,11.13
2023-02-14T04:44:27.211Z,10.70
2023-02-14T04:46:53.826Z,9.27
2023-02-14T04:49:20.351Z,9.57
2023-02-14T04:51:47.638Z,9.60
2023-02-14T04:54:14.327Z,9.83
2023-02-14T04:56:40.841Z,10.13
2023-02-14T04:59:07.456Z,10.97
2023-02-14T05:01:33.938Z,9.70
2023-02-14T05:04:00.364Z,9.17
2023-02-14T05:06:26.922Z,9.60
2023-02-14T05:08:53.332Z,9.07
2023-02-14T05:11:19.756Z,10.00
2023-02-14T05:13:46.206Z,10.07
2023-02-14T05:16:12.697Z,9.63
2023-02-14T05:18:39.236Z,9.00
2023-02-14T05:21:06.427Z,9.00
2023-02-14T05:23:32.977Z,9.17
2023-02-14T05:25:59.456Z,8.77
2023-02-14T05:28:25.903Z,9.43
2023-02-14T05:30:52.649Z,9.47
2023-02-14T05:33:19.249Z,9.07
2023-02-14T05:35:45.762Z,9.83
2023-02-14T05:38:13.159Z,9.20
2023-02-14T05:40:40.495Z,9.70
2023-02-14T05:43:07.277Z,9.97
2023-02-14T05:45:33.884Z,9.83
2023-02-14T05:48:00.477Z,9.33
2023-02-14T05:50:26.998Z,9.50
2023-02-14T05:52:53.510Z,9.33
2023-02-14T05:55:19.894Z,9.13
2023-02-14T05:57:47.191Z,9.63
2023-02-14T06:00:14.438Z,9.40
2023-02-14T06:02:41.137Z,9.67
2023-02-14T06:05:08.211Z,11.10
2023-02-14T06:07:34.769Z,14.17
2023-02-14T06:10:01.190Z,12.03
2023-02-14T06:12:27.608Z,12.00
2023-02-14T06:14:54.071Z,12.53
2023-02-14T06:17:20.484Z,12.47
2023-02-14T06:19:46.938Z,11.70
2023-02-14T06:22:13.370Z,12.37
2023-02-14T06:24:39.858Z,11.43
2023-02-14T06:27:06.224Z,10.70
2023-02-14T06:29:32.634Z,11.87
2023-02-14T06:32:05.743Z,11.90
2023-02-14T06:34:35.337Z,10.83
2023-02-14T06:37:01.832Z,10.20
2023-02-14T06:39:28.234Z,9.53
2023-02-14T06:41:54.777Z,10.70
2023-02-14T06:44:21.250Z,11.50
2023-02-14T06:46:47.641Z,11.83
2023-02-14T06:49:14.126Z,11.23
2023-02-14T06:51:40.666Z,11.57
2023-02-14T06:54:07.109Z,13.07
2023-02-14T06:56:34.856Z,13.00
2023-02-14T06:59:01.325Z,11.63
2023-02-14T07:01:27.814Z,13.13
2023-02-14T07:03:54.231Z,10.10
2023-02-14T07:06:20.857Z,10.83
2023-02-14T07:08:47.249Z,10.73
2023-02-14T07:11:13.700Z,9.27
2023-02-14T07:13:40.165Z,11.57
2023-02-14T07:16:06.740Z,11.43
2023-02-14T07:18:33.154Z,9.17
2023-02-14T07:20:59.782Z,8.90
2023-02-14T07:23:26.448Z,9.63
2023-02-14T07:25:52.855Z,9.63
2023-02-14T07:28:19.230Z,9.23
2023-02-14T07:30:45.827Z,9.63
2023-02-14T07:33:12.506Z,10.57
2023-02-14T07:35:39.948Z,11.37
2023-02-14T07:38:06.349Z,10.53
2023-02-14T07:40:32.834Z,11.27
2023-02-14T07:43:00.762Z,9.57
2023-02-14T07:45:27.389Z,9.93
2023-02-14T07:47:55.354Z,8.60
2023-02-14T07:50:23.617Z,9.67
2023-02-14T07:52:50.155Z,9.80
2023-02-14T07:55:16.679Z,10.53
2023-02-14T07:57:43.300Z,10.43
2023-02-14T08:00:10.122Z,9.50
2023-02-14T08:02:36.580Z,9.10
2023-02-14T08:05:03.918Z,9.90
2023-02-14T08:07:30.406Z,10.50
2023-02-14T08:09:56.829Z,9.37
2023-02-14T08:12:41.773Z,9.87
2023-02-14T08:15:27.088Z,10.47
2023-02-14T08:17:53.573Z,9.87
2023-02-14T08:20:20.113Z,11.00
2023-02-14T08:22:46.501Z,10.80
2023-02-14T08:25:12.913Z,11.40
2023-02-14T08:27:39.334Z,11.33
2023-02-14T08:30:06.397Z,11.27
2023-02-14T08:32:32.951Z,10.53
2023-02-14T08:34:59.491Z,10.33
2023-02-14T08:37:25.933Z,10.67
2023-02-14T08:39:52.349Z,11.07
2023-02-14T08:42:18.902Z,10.70
2023-02-14T08:44:45.346Z,10.53
2023-02-14T08:47:11.754Z,10.60
2023-02-14T08:49:38.144Z,12.40
2023-02-14T08:52:04.677Z,12.57
2023-02-14T08:54:31.122Z,12.30
2023-02-14T08:56:57.977Z,11.00
2023-02-14T08:59:24.528Z,11.13
2023-02-14T09:01:50.994Z,11.60
2023-02-14T09:04:17.511Z,10.17
2023-02-14T09:06:44.076Z,10.80
2023-02-14T09:09:10.487Z,9.90
2023-02-14T09:11:36.990Z,10.30
2023-02-14T09:14:03.508Z,10.23
2023-02-14T09:16:30.213Z,11.33
2023-02-14T09:18:57.173Z,12.00
2023-02-14T09:21:27.668Z,10.57
2023-02-14T09:23:54.385Z,10.77
2023-02-14T09:26:21.559Z,10.33
2023-02-14T09:28:48.002Z,11.07
2023-02-14T09:31:17.717Z,11.43
2023-02-14T09:33:45.415Z,10.67
2023-02-14T09:36:31.231Z,10.37
2023-02-14T09:38:57.664Z,10.63
2023-02-14T09:41:30.990Z,10.07
2023-02-14T09:44:14.013Z,11.43
2023-02-14T09:46:48.575Z,11.47
2023-02-14T09:49:18.977Z,10.47
2023-02-14T09:51:51.796Z,12.17
2023-02-14T09:54:24.116Z,10.50
2023-02-14T09:57:14.400Z,10.53
2023-02-14T09:59:50.604Z,10.90
2023-02-14T10:02:27.449Z,9.33
2023-02-14T10:05:06.914Z,10.23
2023-02-14T10:08:01.134Z,10.43
2023-02-14T10:10:39.745Z,9.87
2023-02-14T10:13:30.655Z,10.70
2023-02-14T10:16:18.310Z,11.20
2023-02-14T10:19:13.817Z,9.20
2023-02-14T10:21:46.446Z,10.47
2023-02-14T10:24:21.019Z,9.53
2023-02-14T10:26:50.065Z,10.33
2023-02-14T10:29:18.701Z,10.27
2023-02-14T10:31:55.593Z,10.17
2023-02-14T10:34:25.002Z,11.47
2023-02-14T10:37:15.162Z,11.50
2023-02-14T10:40:10.490Z,11.40
2023-02-14T10:43:06.060Z,11.27
2023-02-14T10:45:42.088Z,10.80
2023-02-14T10:48:27.184Z,8.97
2023-02-14T10:51:19.230Z,10.47
2023-02-14T10:54:26.151Z,10.23
2023-02-14T10:57:01.235Z,10.60
2023-02-14T10:59:35.328Z,10.30
2023-02-14T11:02:02.245Z,10.87
2023-02-14T11:04:31.268Z,10.83
2023-02-14T11:06:57.884Z,10.00
2023-02-14T11:09:24.686Z,9.83
2023-02-14T11:11:57.602Z,9.93
2023-02-14T11:14:38.728Z,9.53
2023-02-14T11:17:26.976Z,10.53
2023-02-14T11:19:59.584Z,6.47
2023-02-14T11:22:30.958Z,9.60
2023-02-14T11:25:19.421Z,10.20
2023-02-14T11:27:50.094Z,12.30
2023-02-14T11:30:34.042Z,12.30
2023-02-14T11:33:01.033Z,13.70
2023-02-14T11:35:34.434Z,11.00
2023-02-14T11:38:03.824Z,11.40
2023-02-14T11:40:33.281Z,11.00
2023-02-14T11:43:28.883Z,10.97
2023-02-14T11:46:09.905Z,11.50
2023-02-14T11:48:44.359Z,11.83
2023-02-14T11:51:25.351Z,10.03
2023-02-14T11:54:17.076Z,11.53
2023-02-14T11:57:22.268Z,11.00
2023-02-14T12:00:11.868Z,10.57
2023-02-14T12:09:39.297Z,10.67
2023-02-14T12:12:30.006Z,10.90
2023-02-14T12:19:09.153Z,11.47
2023-02-14T12:22:29.673Z,11.53
2023-02-14T12:25:28.750Z,9.80
2023-02-14T12:32:29.044Z,11.37
2023-02-14T12:39:32.112Z,10.57
2023-02-14T12:43:09.345Z,11.93
2023-02-14T12:46:22.267Z,10.20
2023-02-14T12:49:44.404Z,10.33
2023-02-14T12:53:35.089Z,11.60
2023-02-14T12:56:54.361Z,10.63
2023-02-14T13:03:40.535Z,11.27
2023-02-14T13:07:18.271Z,10.10
2023-02-14T13:10:34.632Z,8.67
2023-02-14T13:13:42.795Z,9.70
2023-02-14T13:17:12.653Z,10.87
2023-02-14T13:19:52.541Z,11.00
2023-02-14T13:30:25.656Z,10.93
2023-02-14T13:47:27.221Z,9.50
2023-02-14T13:49:59.778Z,7.90
2023-02-14T13:52:58.475Z,3.70
2023-02-14T13:55:28.666Z,9.30
2023-02-14T13:58:07.408Z,7.70
2023-02-14T14:00:42.318Z,9.23
2023-02-14T14:03:27.753Z,9.33
2023-02-14T14:06:03.695Z,8.17
2023-02-14T14:08:31.373Z,8.27
2023-02-14T14:11:03.068Z,10.60
2023-02-14T14:13:41.930Z,10.00
2023-02-14T14:16:23.435Z,9.47
2023-02-14T14:18:51.981Z,6.27
2023-02-14T14:21:25.764Z,8.73
2023-02-14T14:24:25.679Z,7.83
2023-02-14T14:27:01.475Z,10.17
2023-02-14T14:29:38.259Z,10.50
2023-02-14T14:32:31.874Z,9.77
2023-02-14T14:35:01.070Z,10.17
2023-02-14T14:37:33.866Z,10.60
2023-02-14T14:40:04.084Z,9.27
2023-02-14T14:42:36.454Z,9.10
2023-02-14T14:45:10.162Z,7.70
2023-02-14T14:47:55.230Z,9.50
2023-02-14T14:54:57.340Z,7.67
2023-02-14T14:57:56.582Z,8.60
2023-02-14T15:00:44.962Z,8.77
2023-02-14T15:03:47.246Z,9.53
2023-02-14T15:06:19.972Z,9.20
2023-02-14T15:09:00.172Z,9.33
2023-02-14T15:15:11.223Z,11.70
2023-02-14T15:18:18.288Z,10.47
2023-02-14T15:27:35.680Z,8.43
2023-02-14T15:30:30.973Z,9.70
2023-02-14T15:33:27.046Z,8.43
2023-02-14T15:40:17.906Z,10.50
2023-02-14T15:40:45.329Z,9.53
2023-02-14T15:43:46.017Z,9.73
2023-02-14T15:46:24.588Z,10.10
2023-02-14T15:48:52.355Z,10.37
2023-02-14T15:51:26.915Z,8.00
2023-02-14T15:54:03.378Z,10.77
2023-02-14T15:56:36.626Z,9.10
2023-02-14T15:59:12.358Z,9.10
2023-02-14T16:01:39.333Z,10.63
2023-02-14T16:04:08.572Z,10.00
2023-02-14T16:06:47.040Z,9.50
2023-02-14T16:09:28.932Z,9.97
2023-02-14T16:11:55.564Z,10.93
2023-02-14T16:14:37.078Z,10.73
2023-02-14T16:17:07.405Z,10.60
2023-02-14T16:19:45.478Z,11.73
2023-02-14T16:22:23.849Z,11.07
2023-02-14T16:24:50.280Z,11.70
2023-02-14T16:27:17.702Z,10.00
2023-02-14T16:29:44.193Z,8.63
2023-02-14T16:32:17.687Z,10.10
2023-02-14T16:34:47.093Z,10.40
2023-02-14T16:37:31.008Z,10.27
2023-02-14T16:39:59.711Z,10.47
2023-02-14T16:42:26.492Z,11.57
2023-02-14T16:44:53.555Z,9.87
2023-02-14T16:47:21.167Z,9.40
2023-02-14T16:49:47.648Z,10.23
2023-02-14T16:52:17.932Z,10.00
2023-02-14T16:54:44.598Z,9.73
2023-02-14T16:57:21.376Z,8.80
2023-02-14T16:59:47.829Z,9.40
2023-02-14T17:02:15.962Z,10.90
2023-02-14T17:04:42.439Z,9.83
2023-02-14T17:07:09.127Z,9.17
2023-02-14T17:09:45.978Z,11.07
2023-02-14T17:12:18.405Z,11.13
2023-02-14T17:14:48.865Z,10.10
2023-02-14T17:17:16.305Z,9.60
2023-02-14T17:19:43.767Z,11.17
2023-02-14T17:22:13.558Z,12.00
2023-02-14T17:24:40.473Z,10.73
2023-02-14T17:27:07.776Z,11.07
2023-02-14T17:29:34.256Z,11.30
2023-02-14T17:32:00.766Z,11.67
2023-02-14T17:34:31.812Z,10.67
2023-02-14T17:36:58.702Z,10.63
2023-02-14T17:39:25.212Z,11.20
2023-02-14T17:41:53.153Z,11.63
2023-02-14T17:44:19.646Z,19.77
2023-02-14T17:46:46.124Z,21.43
2023-02-14T17:49:12.619Z,18.37
2023-02-14T17:51:39.355Z,15.83
2023-02-14T17:54:05.806Z,15.37
2023-02-14T17:56:32.200Z,14.73
2023-02-14T17:59:00.023Z,14.23
2023-02-14T18:01:31.613Z,15.07
2023-02-14T18:03:58.172Z,15.33
2023-02-14T18:06:26.488Z,15.90
2023-02-14T18:08:56.595Z,20.13
2023-02-14T18:11:25.871Z,20.33
2023-02-14T18:13:58.188Z,15.33
2023-02-14T18:16:25.327Z,16.37
2023-02-14T18:18:52.298Z,15.40
2023-02-14T18:21:20.981Z,14.47
2023-02-14T18:23:48.120Z,13.17
2023-02-14T18:26:16.670Z,13.30
2023-02-14T18:28:43.164Z,14.87
2023-02-14T18:31:15.140Z,13.10
2023-02-14T18:33:42.250Z,13.67
2023-02-14T18:36:14.832Z,13.03
2023-02-14T18:38:43.234Z,12.23
2023-02-14T18:41:12.345Z,12.63
2023-02-14T18:43:40.927Z,11.80
2023-02-14T18:46:11.001Z,11.57
2023-02-14T18:48:37.767Z,12.70
2023-02-14T18:51:12.900Z,11.83
2023-02-14T18:53:40.741Z,12.67
2023-02-14T18:56:10.248Z,12.00
2023-02-14T18:58:36.697Z,11.97
2023-02-14T19:01:11.146Z,12.23
2023-02-14T19:03:39.040Z,13.53
2023-02-14T19:06:07.041Z,12.43
2023-02-14T19:08:35.512Z,12.57
2023-02-14T19:11:02.788Z,13.40
2023-02-14T19:13:29.456Z,15.97
2023-02-14T19:15:56.413Z,19.40
2023-02-14T19:18:25.569Z,16.67
2023-02-14T19:20:52.148Z,15.73
2023-02-14T19:23:19.907Z,14.13
2023-02-14T19:25:46.393Z,15.60
2023-02-14T19:28:13.547Z,16.47
2023-02-14T19:30:40.234Z,17.10
2023-02-14T19:33:06.916Z,14.60
2023-02-14T19:35:33.431Z,15.60
2023-02-14T19:38:03.324Z,15.73
2023-02-14T19:40:30.374Z,15.40
2023-02-14T19:42:56.832Z,15.33
2023-02-14T19:45:23.623Z,15.43
2023-02-14T19:47:50.033Z,14.60
2023-02-14T19:50:18.226Z,15.80
2023-02-14T19:52:44.694Z,15.53
2023-02-14T19:55:21.055Z,15.70
2023-02-14T19:57:48.038Z,14.37
2023-02-14T20:00:16.296Z,15.63
2023-02-14T20:02:47.920Z,15.13
2023-02-14T20:05:16.494Z,14.90
2023-02-14T20:07:43.414Z,13.20
2023-02-14T20:10:13.704Z,14.77
2023-02-14T20:12:40.236Z,13.83
2023-02-14T20:15:09.239Z,16.13
2023-02-14T20:17:37.399Z,14.30
2023-02-14T20:20:05.951Z,15.50
2023-02-14T20:22:32.426Z,15.47
2023-02-14T20:24:59.094Z,14.23
2023-02-14T20:27:25.734Z,13.80
2023-02-14T20:29:52.343Z,15.73
2023-02-14T20:32:18.867Z,17.73
2023-02-14T20:34:45.351Z,19.57
2023-02-14T20:37:11.891Z,18.90
2023-02-14T20:39:38.430Z,16.10
2023-02-14T20:42:05.562Z,14.50
2023-02-14T20:44:32.114Z,14.60
2023-02-14T20:46:58.625Z,14.93
2023-02-14T20:49:26.561Z,17.20
2023-02-14T20:51:53.867Z,16.20
2023-02-14T20:54:23.147Z,16.20
2023-02-14T20:56:50.796Z,14.07
2023-02-14T20:59:19.258Z,15.53
2023-02-14T21:01:45.763Z,15.17
2023-02-14T21:04:13.930Z,14.93
2023-02-14T21:06:40.355Z,18.87
2023-02-14T21:09:07.137Z,16.37
2023-02-14T21:11:33.593Z,15.67
2023-02-14T21:14:01.908Z,16.00
2023-02-14T21:16:30.140Z,19.57
2023-02-14T21:18:59.018Z,19.00
2023-02-14T21:21:30.135Z,14.30
2023-02-14T21:23:57.457Z,15.07
2023-02-14T21:26:24.841Z,14.73
2023-02-14T21:28:51.273Z,14.43
2023-02-14T21:31:25.345Z,16.57
2023-02-14T21:33:53.814Z,16.27
2023-02-14T21:36:22.285Z,14.33
2023-02-14T21:38:49.173Z,13.60
2023-02-14T21:41:18.784Z,15.20
2023-02-14T21:43:46.813Z,14.77
2023-02-14T21:46:16.437Z,14.07
2023-02-14T21:49:01.843Z,14.20
2023-02-14T21:51:29.218Z,14.13
2023-02-14T21:53:56.403Z,13.57
2023-02-14T21:56:23.891Z,13.97
2023-02-14T21:58:52.296Z,14.13
2023-02-14T22:01:27.810Z,13.47
2023-02-14T22:03:55.792Z,14.03
2023-02-14T22:06:23.039Z,14.53
2023-02-14T22:08:54.209Z,13.80
2023-02-14T22:11:22.581Z,15.23
2023-02-14T22:13:49.698Z,15.57
2023-02-14T22:16:18.523Z,13.93
2023-02-14T22:18:47.378Z,15.57
2023-02-14T22:21:19.657Z,14.90
2023-02-14T22:23:46.183Z,13.87
2023-02-14T22:26:17.555Z,13.90
2023-02-14T22:28:47.192Z,14.07
2023-02-14T22:31:14.965Z,14.97
2023-02-14T22:33:41.736Z,14.17
2023-02-14T22:36:09.031Z,15.23
2023-02-14T22:38:36.267Z,15.23
2023-02-14T22:41:18.141Z,14.67
2023-02-14T22:43:45.215Z,15.90
2023-02-14T22:46:12.748Z,14.83
2023-02-14T22:48:39.615Z,14.23
2023-02-14T22:51:24.920Z,14.83
2023-02-14T22:53:53.992Z,16.80
2023-02-14T22:56:24.713Z,17.67
2023-02-14T22:58:56.070Z,14.83
2023-02-14T23:01:23.724Z,12.87
2023-02-14T23:03:56.556Z,13.33
2023-02-14T23:06:26.549Z,11.67
2023-02-14T23:08:53.532Z,13.47
2023-02-14T23:11:23.265Z,12.40
2023-02-14T23:14:08.403Z,11.63
2023-02-14T23:16:53.144Z,10.90
2023-02-14T23:19:40.977Z,11.53
2023-02-14T23:22:15.827Z,11.03
2023-02-14T23:24:42.737Z,10.73
2023-02-14T23:27:09.755Z,11.90
2023-02-14T23:29:37.246Z,11.23
2023-02-14T23:32:05.483Z,10.80
2023-02-14T23:34:33.948Z,10.90
2023-02-14T23:37:00.633Z,10.87
2023-02-14T23:39:27.206Z,10.07
2023-02-14T23:41:53.717Z,10.73
2023-02-14T23:44:25.148Z,11.50
2023-02-14T23:46:55.734Z,10.33
2023-02-14T23:49:23.143Z,11.87
2023-02-14T23:51:50.770Z,11.73
2023-02-14T23:54:18.061Z,10.73
2023-02-14T23:56:45.698Z,10.90
2023-02-14T23:59:13.618Z,10.93
